GTOMP FOOL-FOOG
Flight info
| Callsign | GTOMP |
|---|---|
| Flight time | 1h 26m |
| Altitude | 2499 |
| Route | FOGR |
| Aircraft | BE35/L-V/N |
Departure
| Time | 2026-04-13 18:09 |
|---|---|
| Airport | Libreville Leon M'ba International Airport (FOOL) |
Arrival
| Time | 2026-04-13 19:36 |
|---|---|
| Airport | Port Gentil International Airport (FOOG) |
| Time | Latitude | Longitude | Altitude | Speed | Heading |
|---|---|---|---|---|---|
| 2026-04-13 17:52 | 0.45547 | 9.41143 | 37 ft | 0 kts | 244° |
| 2026-04-13 18:06 | 0.45569 | 9.41181 | 37 ft | 12 kts | 57° |
| 2026-04-13 18:06 | 0.45643 | 9.41203 | 37 ft | 17 kts | 330° |
| 2026-04-13 18:07 | 0.45769 | 9.41151 | 37 ft | 18 kts | 357° |
| 2026-04-13 18:07 | 0.45801 | 9.41162 | 37 ft | 0 kts | 41° |
| 2026-04-13 18:07 | 0.45811 | 9.41171 | 37 ft | 5 kts | 49° |
| 2026-04-13 18:07 | 0.45895 | 9.41210 | 37 ft | 16 kts | 345° |
| 2026-04-13 18:08 | 0.45907 | 9.41206 | 37 ft | 0 kts | 335° |
| 2026-04-13 18:09 | 0.46085 | 9.41119 | 38 ft | 66 kts | 333° |
| 2026-04-13 18:09 | 0.46655 | 9.40836 | 109 ft | 105 kts | 333° |
| 2026-04-13 18:09 | 0.47345 | 9.40492 | 358 ft | 114 kts | 334° |
| 2026-04-13 18:09 | 0.48082 | 9.40138 | 644 ft | 121 kts | 334° |
| 2026-04-13 18:10 | 0.48757 | 9.39638 | 947 ft | 126 kts | 300° |
| 2026-04-13 18:10 | 0.48732 | 9.38744 | 1153 ft | 139 kts | 243° |
| 2026-04-13 18:10 | 0.48072 | 9.38012 | 1419 ft | 143 kts | 212° |
| 2026-04-13 18:10 | 0.47067 | 9.37912 | 1518 ft | 156 kts | 167° |
| 2026-04-13 18:11 | 0.46003 | 9.38113 | 1787 ft | 153 kts | 168° |
| 2026-04-13 18:11 | 0.44952 | 9.38302 | 1991 ft | 155 kts | 169° |
| 2026-04-13 18:11 | 0.43905 | 9.38589 | 2205 ft | 156 kts | 158° |
| 2026-04-13 18:11 | 0.42838 | 9.38956 | 2230 ft | 167 kts | 160° |
| 2026-04-13 18:12 | 0.41732 | 9.39290 | 2475 ft | 161 kts | 161° |
| 2026-04-13 18:12 | 0.40646 | 9.39671 | 2433 ft | 166 kts | 159° |
| 2026-04-13 18:12 | 0.39556 | 9.40030 | 2356 ft | 166 kts | 163° |
| 2026-04-13 18:12 | 0.38416 | 9.40361 | 2157 ft | 171 kts | 159° |
| 2026-04-13 18:13 | 0.37329 | 9.40769 | 2193 ft | 162 kts | 157° |
| 2026-04-13 18:13 | 0.36294 | 9.41241 | 2102 ft | 164 kts | 151° |
| 2026-04-13 18:13 | 0.35336 | 9.41841 | 2141 ft | 157 kts | 144° |
| 2026-04-13 18:13 | 0.34447 | 9.42451 | 2169 ft | 153 kts | 142° |
| 2026-04-13 18:14 | 0.33601 | 9.43126 | 2138 ft | 154 kts | 139° |
| 2026-04-13 18:14 | 0.32763 | 9.43795 | 2121 ft | 154 kts | 138° |
| 2026-04-13 18:14 | 0.31945 | 9.44480 | 2113 ft | 154 kts | 137° |
| 2026-04-13 18:14 | 0.31145 | 9.45193 | 2117 ft | 152 kts | 135° |
| 2026-04-13 18:15 | 0.30379 | 9.45927 | 2116 ft | 152 kts | 134° |
| 2026-04-13 18:15 | 0.29601 | 9.46659 | 2098 ft | 153 kts | 134° |
| 2026-04-13 18:15 | 0.28828 | 9.47404 | 2073 ft | 154 kts | 133° |
| 2026-04-13 18:15 | 0.28086 | 9.48154 | 2075 ft | 149 kts | 132° |
| 2026-04-13 18:16 | 0.27320 | 9.48869 | 1911 ft | 153 kts | 139° |
| 2026-04-13 18:16 | 0.26570 | 9.49529 | 2043 ft | 133 kts | 134° |
| 2026-04-13 18:16 | 0.25930 | 9.50172 | 2068 ft | 128 kts | 131° |
| 2026-04-13 18:16 | 0.25320 | 9.50825 | 2042 ft | 128 kts | 129° |
| 2026-04-13 18:17 | 0.24748 | 9.51498 | 2046 ft | 125 kts | 127° |
| 2026-04-13 18:17 | 0.24194 | 9.52161 | 2033 ft | 125 kts | 126° |
| 2026-04-13 18:17 | 0.23614 | 9.52844 | 2043 ft | 130 kts | 124° |
| 2026-04-13 18:17 | 0.23072 | 9.53572 | 2075 ft | 133 kts | 123° |
| 2026-04-13 18:18 | 0.22580 | 9.54370 | 2156 ft | 131 kts | 114° |
| 2026-04-13 18:18 | 0.22068 | 9.55077 | 2297 ft | 127 kts | 131° |
| 2026-04-13 18:18 | 0.21419 | 9.55742 | 2257 ft | 137 kts | 135° |
| 2026-04-13 18:18 | 0.20633 | 9.56343 | 2167 ft | 147 kts | 141° |
| 2026-04-13 18:19 | 0.19847 | 9.56973 | 2256 ft | 142 kts | 138° |
| 2026-04-13 18:19 | 0.19056 | 9.57573 | 2277 ft | 143 kts | 147° |
| 2026-04-13 18:19 | 0.18199 | 9.58079 | 2301 ft | 143 kts | 141° |
| 2026-04-13 18:19 | 0.17434 | 9.58706 | 2351 ft | 141 kts | 139° |
| 2026-04-13 18:20 | 0.16665 | 9.59329 | 2385 ft | 141 kts | 139° |
| 2026-04-13 18:20 | 0.15898 | 9.59942 | 2458 ft | 139 kts | 139° |
| 2026-04-13 18:20 | 0.15141 | 9.60551 | 2462 ft | 142 kts | 139° |
| 2026-04-13 18:20 | 0.14360 | 9.61155 | 2521 ft | 140 kts | 141° |
| 2026-04-13 18:21 | 0.13573 | 9.61762 | 2507 ft | 144 kts | 139° |
| 2026-04-13 18:21 | 0.12793 | 9.62390 | 2511 ft | 145 kts | 139° |
| 2026-04-13 18:21 | 0.12003 | 9.63037 | 2500 ft | 147 kts | 139° |
| 2026-04-13 18:21 | 0.11199 | 9.63680 | 2497 ft | 148 kts | 140° |
| 2026-04-13 18:22 | 0.10387 | 9.64317 | 2467 ft | 150 kts | 139° |
| 2026-04-13 18:22 | 0.09563 | 9.64988 | 2435 ft | 151 kts | 139° |
| 2026-04-13 18:22 | 0.08742 | 9.65659 | 2384 ft | 154 kts | 139° |
| 2026-04-13 18:22 | 0.07931 | 9.66322 | 2442 ft | 148 kts | 139° |
| 2026-04-13 18:23 | 0.07129 | 9.66976 | 2477 ft | 146 kts | 139° |
| 2026-04-13 18:23 | 0.06306 | 9.67583 | 2480 ft | 147 kts | 147° |
| 2026-04-13 18:23 | 0.05416 | 9.68095 | 2483 ft | 148 kts | 148° |
| 2026-04-13 18:23 | 0.04516 | 9.68605 | 2483 ft | 148 kts | 149° |
| 2026-04-13 18:24 | 0.03618 | 9.69113 | 2483 ft | 148 kts | 149° |
| 2026-04-13 18:24 | 0.02712 | 9.69626 | 2483 ft | 148 kts | 149° |
| 2026-04-13 18:24 | 0.01805 | 9.70139 | 2483 ft | 149 kts | 149° |
| 2026-04-13 18:24 | 0.00907 | 9.70647 | 2483 ft | 149 kts | 149° |
| 2026-04-13 18:25 | 0.00005 | 9.71158 | 2483 ft | 149 kts | 149° |
| 2026-04-13 18:25 | -0.00904 | 9.71672 | 2483 ft | 149 kts | 149° |
| 2026-04-13 18:25 | -0.01812 | 9.72186 | 2483 ft | 149 kts | 149° |
| 2026-04-13 18:25 | -0.02712 | 9.72695 | 2483 ft | 149 kts | 149° |
| 2026-04-13 18:26 | -0.03626 | 9.73212 | 2483 ft | 149 kts | 149° |
| 2026-04-13 18:26 | -0.04532 | 9.73725 | 2483 ft | 149 kts | 149° |
| 2026-04-13 18:26 | -0.05439 | 9.74239 | 2482 ft | 149 kts | 149° |
| 2026-04-13 18:26 | -0.06345 | 9.74752 | 2483 ft | 149 kts | 149° |
| 2026-04-13 18:27 | -0.07245 | 9.75263 | 2483 ft | 149 kts | 148° |
| 2026-04-13 18:27 | -0.08083 | 9.75879 | 2484 ft | 148 kts | 140° |
| 2026-04-13 18:27 | -0.08796 | 9.76610 | 2485 ft | 147 kts | 127° |
| 2026-04-13 18:27 | -0.09446 | 9.77404 | 2483 ft | 147 kts | 127° |
| 2026-04-13 18:28 | -0.10149 | 9.78157 | 2482 ft | 148 kts | 135° |
| 2026-04-13 18:28 | -0.10912 | 9.78852 | 2482 ft | 148 kts | 135° |
| 2026-04-13 18:28 | -0.11684 | 9.79551 | 2482 ft | 148 kts | 136° |
| 2026-04-13 18:28 | -0.12443 | 9.80238 | 2482 ft | 148 kts | 136° |
| 2026-04-13 18:29 | -0.13208 | 9.80929 | 2482 ft | 148 kts | 136° |
| 2026-04-13 18:29 | -0.13979 | 9.81627 | 2482 ft | 148 kts | 136° |
| 2026-04-13 18:29 | -0.14749 | 9.82321 | 2481 ft | 148 kts | 136° |
| 2026-04-13 18:29 | -0.15579 | 9.82925 | 2482 ft | 148 kts | 143° |
| 2026-04-13 18:30 | -0.16441 | 9.83516 | 2482 ft | 148 kts | 143° |
| 2026-04-13 18:30 | -0.17293 | 9.84099 | 2481 ft | 148 kts | 143° |
| 2026-04-13 18:30 | -0.18148 | 9.84683 | 2481 ft | 148 kts | 143° |
| 2026-04-13 18:30 | -0.19011 | 9.85274 | 2481 ft | 148 kts | 143° |
| 2026-04-13 18:31 | -0.19860 | 9.85854 | 2483 ft | 148 kts | 143° |
| 2026-04-13 18:31 | -0.20720 | 9.86442 | 2482 ft | 149 kts | 143° |
| 2026-04-13 18:31 | -0.21579 | 9.87030 | 2482 ft | 149 kts | 143° |
| 2026-04-13 18:31 | -0.22432 | 9.87613 | 2482 ft | 149 kts | 143° |
| 2026-04-13 18:32 | -0.23285 | 9.88196 | 2482 ft | 149 kts | 143° |
| 2026-04-13 18:32 | -0.24149 | 9.88787 | 2482 ft | 148 kts | 143° |
| 2026-04-13 18:32 | -0.25000 | 9.89368 | 2481 ft | 147 kts | 143° |
| 2026-04-13 18:32 | -0.25837 | 9.89940 | 2481 ft | 146 kts | 143° |
| 2026-04-13 18:33 | -0.26677 | 9.90515 | 2482 ft | 145 kts | 143° |
| 2026-04-13 18:33 | -0.27516 | 9.91088 | 2482 ft | 145 kts | 143° |
| 2026-04-13 18:33 | -0.28354 | 9.91659 | 2482 ft | 144 kts | 143° |
| 2026-04-13 18:34 | -0.30016 | 9.92794 | 2481 ft | 143 kts | 143° |
| 2026-04-13 18:34 | -0.30825 | 9.93347 | 2483 ft | 140 kts | 143° |
| 2026-04-13 18:34 | -0.31623 | 9.93891 | 2481 ft | 138 kts | 143° |
| 2026-04-13 18:34 | -0.32278 | 9.94585 | 2481 ft | 135 kts | 126° |
| 2026-04-13 18:35 | -0.32853 | 9.95311 | 2481 ft | 134 kts | 124° |
| 2026-04-13 18:35 | -0.33401 | 9.96072 | 2482 ft | 133 kts | 123° |
| 2026-04-13 18:35 | -0.33934 | 9.96823 | 2482 ft | 132 kts | 122° |
| 2026-04-13 18:35 | -0.34501 | 9.97623 | 2490 ft | 150 kts | 122° |
| 2026-04-13 18:36 | -0.35144 | 9.98535 | 2488 ft | 165 kts | 123° |
| 2026-04-13 18:36 | -0.35816 | 9.99493 | 2486 ft | 174 kts | 123° |
| 2026-04-13 18:36 | -0.36525 | 10.00510 | 2484 ft | 179 kts | 123° |
| 2026-04-13 18:36 | -0.37432 | 10.01368 | 2482 ft | 182 kts | 143° |
| 2026-04-13 18:37 | -0.38137 | 10.01849 | 2483 ft | 183 kts | 144° |
| 2026-04-13 18:37 | -0.39571 | 10.02807 | 2482 ft | 185 kts | 144° |
| 2026-04-13 18:37 | -0.40648 | 10.03525 | 2482 ft | 185 kts | 144° |
| 2026-04-13 18:37 | -0.41717 | 10.04238 | 2482 ft | 186 kts | 144° |
| 2026-04-13 18:38 | -0.42809 | 10.04965 | 2483 ft | 186 kts | 144° |
| 2026-04-13 18:38 | -0.43887 | 10.05685 | 2482 ft | 186 kts | 144° |
| 2026-04-13 18:38 | -0.44954 | 10.06397 | 2482 ft | 186 kts | 144° |
| 2026-04-13 18:38 | -0.46043 | 10.07123 | 2483 ft | 186 kts | 144° |
| 2026-04-13 18:39 | -0.47124 | 10.07843 | 2482 ft | 186 kts | 144° |
| 2026-04-13 18:39 | -0.48198 | 10.08558 | 2482 ft | 186 kts | 144° |
| 2026-04-13 18:39 | -0.49279 | 10.09276 | 2481 ft | 182 kts | 145° |
| 2026-04-13 18:39 | -0.50306 | 10.09962 | 2443 ft | 173 kts | 144° |
| 2026-04-13 18:40 | -0.51302 | 10.10626 | 2338 ft | 169 kts | 144° |
| 2026-04-13 18:40 | -0.52257 | 10.11263 | 2232 ft | 160 kts | 144° |
| 2026-04-13 18:40 | -0.53158 | 10.11864 | 2126 ft | 153 kts | 144° |
| 2026-04-13 18:40 | -0.54037 | 10.12450 | 2023 ft | 148 kts | 144° |
| 2026-04-13 18:41 | -0.54875 | 10.13010 | 1983 ft | 140 kts | 144° |
| 2026-04-13 18:41 | -0.55586 | 10.13625 | 1979 ft | 131 kts | 129° |
| 2026-04-13 18:41 | -0.56165 | 10.14319 | 1978 ft | 126 kts | 127° |
| 2026-04-13 18:41 | -0.56749 | 10.15033 | 1986 ft | 139 kts | 127° |
| 2026-04-13 18:42 | -0.57389 | 10.15814 | 1986 ft | 148 kts | 127° |
| 2026-04-13 18:42 | -0.58047 | 10.16624 | 1984 ft | 154 kts | 127° |
| 2026-04-13 18:42 | -0.58733 | 10.17471 | 1983 ft | 158 kts | 127° |
| 2026-04-13 18:42 | -0.59432 | 10.18335 | 1987 ft | 160 kts | 127° |
| 2026-04-13 18:43 | -0.60139 | 10.19211 | 1983 ft | 161 kts | 127° |
| 2026-04-13 18:43 | -0.60845 | 10.20084 | 1983 ft | 162 kts | 127° |
| 2026-04-13 18:43 | -0.61560 | 10.20972 | 1922 ft | 167 kts | 127° |
| 2026-04-13 18:43 | -0.62303 | 10.21895 | 1801 ft | 172 kts | 127° |
| 2026-04-13 18:44 | -0.63054 | 10.22835 | 1678 ft | 175 kts | 127° |
| 2026-04-13 18:44 | -0.63805 | 10.23769 | 1545 ft | 166 kts | 127° |
| 2026-04-13 18:44 | -0.64502 | 10.24634 | 1484 ft | 155 kts | 127° |
| 2026-04-13 18:44 | -0.65165 | 10.25421 | 1396 ft | 141 kts | 129° |
| 2026-04-13 18:45 | -0.65801 | 10.26139 | 1209 ft | 135 kts | 129° |
| 2026-04-13 18:45 | -0.66432 | 10.26794 | 1129 ft | 118 kts | 138° |
| 2026-04-13 18:45 | -0.67150 | 10.27052 | 999 ft | 117 kts | 176° |
| 2026-04-13 18:45 | -0.67939 | 10.26897 | 810 ft | 112 kts | 209° |
| 2026-04-13 18:46 | -0.68488 | 10.26383 | 596 ft | 107 kts | 227° |
| 2026-04-13 18:46 | -0.69003 | 10.25863 | 371 ft | 104 kts | 225° |
| 2026-04-13 18:46 | -0.69522 | 10.25382 | 185 ft | 101 kts | 224° |
| 2026-04-13 18:46 | -0.70014 | 10.24928 | 117 ft | 92 kts | 225° |
| 2026-04-13 18:47 | -0.70445 | 10.24522 | 89 ft | 77 kts | 224° |
| 2026-04-13 18:47 | -0.70934 | 10.24097 | 138 ft | 109 kts | 221° |
| 2026-04-13 18:47 | -0.71488 | 10.23587 | 480 ft | 106 kts | 228° |
| 2026-04-13 18:47 | -0.71934 | 10.22936 | 736 ft | 120 kts | 242° |
| 2026-04-13 18:48 | -0.72272 | 10.22156 | 1045 ft | 125 kts | 254° |
| 2026-04-13 18:48 | -0.72468 | 10.21300 | 1373 ft | 126 kts | 269° |
| 2026-04-13 18:48 | -0.72229 | 10.20476 | 1705 ft | 125 kts | 303° |
| 2026-04-13 18:48 | -0.71657 | 10.19867 | 2021 ft | 124 kts | 319° |
| 2026-04-13 18:49 | -0.70972 | 10.19307 | 2132 ft | 126 kts | 325° |
| 2026-04-13 18:49 | -0.70199 | 10.18798 | 2136 ft | 136 kts | 328° |
| 2026-04-13 18:49 | -0.69334 | 10.18280 | 2007 ft | 149 kts | 329° |
| 2026-04-13 18:49 | -0.68676 | 10.17498 | 2032 ft | 151 kts | 291° |
| 2026-04-13 18:50 | -0.68529 | 10.16431 | 1968 ft | 159 kts | 273° |
| 2026-04-13 18:50 | -0.68454 | 10.15345 | 1981 ft | 152 kts | 276° |
| 2026-04-13 18:50 | -0.68315 | 10.14304 | 1913 ft | 151 kts | 284° |
| 2026-04-13 18:50 | -0.67947 | 10.13318 | 1794 ft | 152 kts | 290° |
| 2026-04-13 18:51 | -0.67865 | 10.12316 | 1940 ft | 139 kts | 268° |
| 2026-04-13 18:51 | -0.67928 | 10.11349 | 1922 ft | 140 kts | 268° |
| 2026-04-13 18:51 | -0.67972 | 10.10372 | 1874 ft | 142 kts | 268° |
| 2026-04-13 18:51 | -0.68053 | 10.09384 | 1882 ft | 140 kts | 266° |
| 2026-04-13 18:52 | -0.68142 | 10.08422 | 1870 ft | 140 kts | 266° |
| 2026-04-13 18:52 | -0.68239 | 10.07504 | 2022 ft | 130 kts | 266° |
| 2026-04-13 18:52 | -0.68307 | 10.06591 | 2021 ft | 132 kts | 268° |
| 2026-04-13 18:52 | -0.68372 | 10.05675 | 2021 ft | 133 kts | 268° |
| 2026-04-13 18:53 | -0.68437 | 10.04753 | 2021 ft | 131 kts | 268° |
| 2026-04-13 18:53 | -0.68502 | 10.03844 | 2021 ft | 130 kts | 268° |
| 2026-04-13 18:53 | -0.68566 | 10.02956 | 2021 ft | 129 kts | 268° |
| 2026-04-13 18:53 | -0.68631 | 10.02058 | 2022 ft | 129 kts | 268° |
| 2026-04-13 18:54 | -0.68695 | 10.01171 | 2020 ft | 127 kts | 268° |
| 2026-04-13 18:54 | -0.68759 | 10.00289 | 2020 ft | 126 kts | 268° |
| 2026-04-13 18:54 | -0.68823 | 9.99417 | 2020 ft | 125 kts | 268° |
| 2026-04-13 18:54 | -0.68886 | 9.98559 | 2021 ft | 124 kts | 268° |
| 2026-04-13 18:55 | -0.68950 | 9.97694 | 2021 ft | 124 kts | 268° |
| 2026-04-13 18:55 | -0.69013 | 9.96837 | 2020 ft | 123 kts | 268° |
| 2026-04-13 18:55 | -0.69076 | 9.95984 | 2021 ft | 123 kts | 268° |
| 2026-04-13 18:55 | -0.69139 | 9.95132 | 2022 ft | 123 kts | 268° |
| 2026-04-13 18:56 | -0.69203 | 9.94276 | 2021 ft | 123 kts | 268° |
| 2026-04-13 18:56 | -0.69266 | 9.93427 | 2021 ft | 123 kts | 268° |
| 2026-04-13 18:56 | -0.69329 | 9.92573 | 2021 ft | 123 kts | 268° |
| 2026-04-13 18:56 | -0.69392 | 9.91722 | 2021 ft | 123 kts | 268° |
| 2026-04-13 18:57 | -0.69330 | 9.90880 | 2020 ft | 121 kts | 281° |
| 2026-04-13 18:57 | -0.69191 | 9.90049 | 2021 ft | 121 kts | 281° |
| 2026-04-13 18:57 | -0.69046 | 9.89217 | 2021 ft | 121 kts | 282° |
| 2026-04-13 18:57 | -0.68902 | 9.88385 | 2021 ft | 121 kts | 282° |
| 2026-04-13 18:58 | -0.68758 | 9.87559 | 2021 ft | 121 kts | 282° |
| 2026-04-13 18:58 | -0.68614 | 9.86731 | 2021 ft | 121 kts | 282° |
| 2026-04-13 18:58 | -0.68469 | 9.85894 | 2022 ft | 121 kts | 282° |
| 2026-04-13 18:58 | -0.68402 | 9.85053 | 2023 ft | 122 kts | 268° |
| 2026-04-13 18:59 | -0.68471 | 9.84211 | 2021 ft | 122 kts | 266° |
| 2026-04-13 18:59 | -0.68549 | 9.83356 | 2021 ft | 122 kts | 266° |
| 2026-04-13 18:59 | -0.68623 | 9.82527 | 2017 ft | 117 kts | 266° |
| 2026-04-13 18:59 | -0.68701 | 9.81708 | 2022 ft | 119 kts | 266° |
| 2026-04-13 19:00 | -0.68753 | 9.81154 | 2022 ft | 119 kts | 266° |
| 2026-04-13 19:00 | -0.68856 | 9.80041 | 2022 ft | 121 kts | 266° |
| 2026-04-13 19:00 | -0.68933 | 9.79207 | 2022 ft | 121 kts | 266° |
| 2026-04-13 19:00 | -0.69012 | 9.78360 | 2021 ft | 122 kts | 266° |
| 2026-04-13 19:01 | -0.69090 | 9.77523 | 2021 ft | 122 kts | 266° |
| 2026-04-13 19:01 | -0.69169 | 9.76670 | 2020 ft | 122 kts | 266° |
| 2026-04-13 19:01 | -0.69248 | 9.75821 | 2020 ft | 122 kts | 266° |
| 2026-04-13 19:01 | -0.69325 | 9.74984 | 2020 ft | 122 kts | 266° |
| 2026-04-13 19:02 | -0.69405 | 9.74129 | 2022 ft | 122 kts | 266° |
| 2026-04-13 19:02 | -0.69483 | 9.73286 | 2021 ft | 122 kts | 266° |
| 2026-04-13 19:02 | -0.69562 | 9.72436 | 2021 ft | 122 kts | 266° |
| 2026-04-13 19:02 | -0.69641 | 9.71592 | 2022 ft | 122 kts | 266° |
| 2026-04-13 19:03 | -0.69720 | 9.70739 | 2022 ft | 123 kts | 266° |
| 2026-04-13 19:03 | -0.69800 | 9.69886 | 2022 ft | 123 kts | 266° |
| 2026-04-13 19:03 | -0.69874 | 9.69040 | 2019 ft | 122 kts | 270° |
| 2026-04-13 19:03 | -0.69764 | 9.68201 | 2020 ft | 121 kts | 282° |
| 2026-04-13 19:04 | -0.69609 | 9.67371 | 2021 ft | 121 kts | 282° |
| 2026-04-13 19:04 | -0.69501 | 9.66544 | 2022 ft | 121 kts | 277° |
| 2026-04-13 19:04 | -0.69429 | 9.65694 | 2021 ft | 122 kts | 276° |
| 2026-04-13 19:04 | -0.69359 | 9.64855 | 2021 ft | 122 kts | 276° |
| 2026-04-13 19:05 | -0.69288 | 9.64008 | 2021 ft | 122 kts | 276° |
| 2026-04-13 19:05 | -0.69270 | 9.63156 | 2022 ft | 122 kts | 271° |
| 2026-04-13 19:05 | -0.69287 | 9.62314 | 2021 ft | 122 kts | 270° |
| 2026-04-13 19:05 | -0.69307 | 9.61459 | 2021 ft | 122 kts | 270° |
| 2026-04-13 19:06 | -0.69326 | 9.60615 | 2022 ft | 122 kts | 270° |
| 2026-04-13 19:06 | -0.69346 | 9.59763 | 2021 ft | 122 kts | 270° |
| 2026-04-13 19:06 | -0.69366 | 9.58901 | 2020 ft | 122 kts | 270° |
| 2026-04-13 19:06 | -0.69386 | 9.58054 | 2020 ft | 122 kts | 270° |
| 2026-04-13 19:07 | -0.69406 | 9.57203 | 2021 ft | 122 kts | 270° |
| 2026-04-13 19:07 | -0.69425 | 9.56350 | 2021 ft | 122 kts | 270° |
| 2026-04-13 19:07 | -0.69445 | 9.55508 | 2019 ft | 122 kts | 270° |
| 2026-04-13 19:07 | -0.69464 | 9.54640 | 2023 ft | 127 kts | 270° |
| 2026-04-13 19:08 | -0.69482 | 9.53740 | 2020 ft | 132 kts | 270° |
| 2026-04-13 19:08 | -0.69500 | 9.52803 | 2021 ft | 138 kts | 270° |
| 2026-04-13 19:08 | -0.69516 | 9.51817 | 2022 ft | 143 kts | 270° |
| 2026-04-13 19:08 | -0.69533 | 9.50805 | 2024 ft | 147 kts | 270° |
| 2026-04-13 19:09 | -0.69549 | 9.49775 | 2023 ft | 150 kts | 270° |
| 2026-04-13 19:09 | -0.69566 | 9.48721 | 2022 ft | 152 kts | 270° |
| 2026-04-13 19:09 | -0.69582 | 9.47670 | 2022 ft | 153 kts | 270° |
| 2026-04-13 19:09 | -0.69599 | 9.46598 | 2020 ft | 153 kts | 270° |
| 2026-04-13 19:10 | -0.69616 | 9.45545 | 2022 ft | 153 kts | 270° |
| 2026-04-13 19:10 | -0.69633 | 9.44469 | 2021 ft | 154 kts | 270° |
| 2026-04-13 19:10 | -0.69650 | 9.43397 | 2021 ft | 154 kts | 270° |
| 2026-04-13 19:10 | -0.69667 | 9.42334 | 2021 ft | 154 kts | 270° |
| 2026-04-13 19:11 | -0.69684 | 9.41263 | 2021 ft | 154 kts | 270° |
| 2026-04-13 19:11 | -0.69702 | 9.40187 | 2020 ft | 154 kts | 270° |
| 2026-04-13 19:11 | -0.69719 | 9.39120 | 2020 ft | 152 kts | 270° |
| 2026-04-13 19:11 | -0.69737 | 9.38069 | 2022 ft | 148 kts | 270° |
| 2026-04-13 19:12 | -0.69756 | 9.37056 | 2020 ft | 146 kts | 270° |
| 2026-04-13 19:12 | -0.69775 | 9.36058 | 2021 ft | 142 kts | 270° |
| 2026-04-13 19:12 | -0.69795 | 9.35079 | 2020 ft | 139 kts | 270° |
| 2026-04-13 19:12 | -0.69814 | 9.34117 | 2020 ft | 137 kts | 270° |
| 2026-04-13 19:13 | -0.69834 | 9.33171 | 2019 ft | 135 kts | 270° |
| 2026-04-13 19:13 | -0.69854 | 9.32234 | 2022 ft | 134 kts | 270° |
| 2026-04-13 19:13 | -0.69874 | 9.31302 | 2022 ft | 134 kts | 270° |
| 2026-04-13 19:13 | -0.69893 | 9.30373 | 2020 ft | 133 kts | 270° |
| 2026-04-13 19:14 | -0.69913 | 9.29443 | 2020 ft | 133 kts | 270° |
| 2026-04-13 19:14 | -0.69933 | 9.28526 | 2021 ft | 132 kts | 270° |
| 2026-04-13 19:14 | -0.69953 | 9.27594 | 2021 ft | 132 kts | 270° |
| 2026-04-13 19:14 | -0.69973 | 9.26681 | 2021 ft | 132 kts | 270° |
| 2026-04-13 19:15 | -0.69993 | 9.25759 | 2021 ft | 132 kts | 270° |
| 2026-04-13 19:15 | -0.70013 | 9.24834 | 2021 ft | 132 kts | 270° |
| 2026-04-13 19:15 | -0.70033 | 9.23920 | 2021 ft | 132 kts | 270° |
| 2026-04-13 19:15 | -0.70053 | 9.23002 | 2021 ft | 132 kts | 270° |
| 2026-04-13 19:16 | -0.70073 | 9.22084 | 2021 ft | 132 kts | 270° |
| 2026-04-13 19:16 | -0.70093 | 9.21160 | 2021 ft | 132 kts | 270° |
| 2026-04-13 19:16 | -0.70113 | 9.20251 | 2021 ft | 132 kts | 270° |
| 2026-04-13 19:16 | -0.70134 | 9.19329 | 2021 ft | 132 kts | 270° |
| 2026-04-13 19:17 | -0.70154 | 9.18405 | 2022 ft | 132 kts | 270° |
| 2026-04-13 19:17 | -0.70174 | 9.17493 | 2021 ft | 132 kts | 270° |
| 2026-04-13 19:17 | -0.70195 | 9.16567 | 2020 ft | 132 kts | 270° |
| 2026-04-13 19:17 | -0.70215 | 9.15656 | 2020 ft | 132 kts | 270° |
| 2026-04-13 19:18 | -0.70235 | 9.14740 | 2021 ft | 132 kts | 270° |
| 2026-04-13 19:18 | -0.70256 | 9.13820 | 2021 ft | 132 kts | 270° |
| 2026-04-13 19:18 | -0.70276 | 9.12897 | 2021 ft | 132 kts | 270° |
| 2026-04-13 19:18 | -0.70276 | 9.12295 | 2018 ft | 131 kts | 277° |
| 2026-04-13 19:19 | -0.69987 | 9.11113 | 2021 ft | 130 kts | 287° |
| 2026-04-13 19:19 | -0.69739 | 9.10239 | 2021 ft | 130 kts | 287° |
| 2026-04-13 19:19 | -0.69493 | 9.09372 | 2021 ft | 130 kts | 287° |
| 2026-04-13 19:19 | -0.69244 | 9.08494 | 2021 ft | 130 kts | 287° |
| 2026-04-13 19:20 | -0.69000 | 9.07630 | 2021 ft | 130 kts | 287° |
| 2026-04-13 19:20 | -0.68753 | 9.06755 | 2021 ft | 130 kts | 287° |
| 2026-04-13 19:20 | -0.68508 | 9.05873 | 2021 ft | 131 kts | 284° |
| 2026-04-13 19:20 | -0.68415 | 9.04965 | 2022 ft | 131 kts | 276° |
| 2026-04-13 19:21 | -0.68353 | 9.04060 | 2021 ft | 131 kts | 275° |
| 2026-04-13 19:21 | -0.68293 | 9.03141 | 2021 ft | 131 kts | 275° |
| 2026-04-13 19:21 | -0.68234 | 9.02227 | 2021 ft | 132 kts | 275° |
| 2026-04-13 19:21 | -0.68174 | 9.01315 | 2021 ft | 132 kts | 275° |
| 2026-04-13 19:22 | -0.68114 | 9.00398 | 2005 ft | 133 kts | 275° |
| 2026-04-13 19:22 | -0.68054 | 8.99470 | 1881 ft | 136 kts | 275° |
| 2026-04-13 19:22 | -0.67993 | 8.98522 | 1757 ft | 137 kts | 275° |
| 2026-04-13 19:22 | -0.67932 | 8.97566 | 1632 ft | 138 kts | 275° |
| 2026-04-13 19:23 | -0.67870 | 8.96614 | 1508 ft | 138 kts | 275° |
| 2026-04-13 19:23 | -0.67809 | 8.95651 | 1385 ft | 139 kts | 275° |
| 2026-04-13 19:23 | -0.67747 | 8.94685 | 1263 ft | 139 kts | 275° |
| 2026-04-13 19:23 | -0.67446 | 8.93793 | 1120 ft | 136 kts | 311° |
| 2026-04-13 19:24 | -0.66633 | 8.93382 | 998 ft | 134 kts | 354° |
| 2026-04-13 19:24 | -0.65784 | 8.93655 | 972 ft | 128 kts | 39° |
| 2026-04-13 19:24 | -0.65413 | 8.94430 | 971 ft | 125 kts | 84° |
| 2026-04-13 19:24 | -0.65584 | 8.95270 | 978 ft | 121 kts | 104° |
| 2026-04-13 19:25 | -0.65840 | 8.96057 | 980 ft | 118 kts | 105° |
| 2026-04-13 19:25 | -0.66294 | 8.96736 | 973 ft | 119 kts | 143° |
| 2026-04-13 19:25 | -0.67094 | 8.97029 | 977 ft | 128 kts | 173° |
| 2026-04-13 19:25 | -0.67961 | 8.96787 | 976 ft | 137 kts | 216° |
| 2026-04-13 19:26 | -0.68703 | 8.96111 | 986 ft | 150 kts | 225° |
| 2026-04-13 19:26 | -0.69313 | 8.95233 | 969 ft | 158 kts | 256° |
| 2026-04-13 19:26 | -0.69167 | 8.94161 | 967 ft | 160 kts | 300° |
| 2026-04-13 19:26 | -0.68594 | 8.93209 | 984 ft | 162 kts | 298° |
| 2026-04-13 19:27 | -0.68084 | 8.92226 | 980 ft | 156 kts | 298° |
| 2026-04-13 19:27 | -0.67673 | 8.91227 | 981 ft | 153 kts | 291° |
| 2026-04-13 19:27 | -0.67306 | 8.90235 | 981 ft | 151 kts | 291° |
| 2026-04-13 19:27 | -0.66950 | 8.89263 | 982 ft | 149 kts | 291° |
| 2026-04-13 19:28 | -0.66594 | 8.88295 | 982 ft | 148 kts | 291° |
| 2026-04-13 19:28 | -0.66226 | 8.87330 | 978 ft | 147 kts | 297° |
| 2026-04-13 19:28 | -0.65716 | 8.86449 | 980 ft | 144 kts | 302° |
| 2026-04-13 19:28 | -0.65205 | 8.85605 | 981 ft | 140 kts | 302° |
| 2026-04-13 19:29 | -0.64700 | 8.84772 | 982 ft | 140 kts | 302° |
| 2026-04-13 19:29 | -0.64198 | 8.83945 | 981 ft | 136 kts | 302° |
| 2026-04-13 19:29 | -0.63609 | 8.83240 | 975 ft | 130 kts | 325° |
| 2026-04-13 19:29 | -0.62863 | 8.82747 | 979 ft | 124 kts | 328° |
| 2026-04-13 19:30 | -0.62157 | 8.82300 | 979 ft | 118 kts | 328° |
| 2026-04-13 19:30 | -0.61465 | 8.81862 | 980 ft | 114 kts | 328° |
| 2026-04-13 19:30 | -0.60940 | 8.81295 | 983 ft | 112 kts | 302° |
| 2026-04-13 19:30 | -0.60575 | 8.80610 | 982 ft | 110 kts | 298° |
| 2026-04-13 19:31 | -0.60459 | 8.79890 | 1027 ft | 107 kts | 255° |
| 2026-04-13 19:31 | -0.60985 | 8.79352 | 970 ft | 115 kts | 201° |
| 2026-04-13 19:31 | -0.61760 | 8.79172 | 969 ft | 108 kts | 192° |
| 2026-04-13 19:31 | -0.62452 | 8.78999 | 1030 ft | 93 kts | 195° |
| 2026-04-13 19:32 | -0.63062 | 8.78811 | 911 ft | 90 kts | 200° |
| 2026-04-13 19:32 | -0.63651 | 8.78577 | 731 ft | 90 kts | 205° |
| 2026-04-13 19:32 | -0.64229 | 8.78338 | 606 ft | 87 kts | 203° |
| 2026-04-13 19:32 | -0.64782 | 8.78123 | 477 ft | 84 kts | 202° |
| 2026-04-13 19:33 | -0.65317 | 8.77908 | 431 ft | 81 kts | 202° |
| 2026-04-13 19:33 | -0.65821 | 8.77684 | 465 ft | 80 kts | 204° |
| 2026-04-13 19:33 | -0.66345 | 8.77464 | 561 ft | 82 kts | 201° |
| 2026-04-13 19:34 | -0.67463 | 8.76998 | 612 ft | 90 kts | 203° |
| 2026-04-13 19:34 | -0.68065 | 8.76759 | 581 ft | 92 kts | 201° |
| 2026-04-13 19:34 | -0.68666 | 8.76513 | 509 ft | 95 kts | 202° |
| 2026-04-13 19:34 | -0.69295 | 8.76249 | 353 ft | 98 kts | 204° |
| 2026-04-13 19:35 | -0.69934 | 8.75969 | 155 ft | 100 kts | 204° |
| 2026-04-13 19:35 | -0.70552 | 8.75706 | 43 ft | 91 kts | 203° |
| 2026-04-13 19:35 | -0.71092 | 8.75482 | 22 ft | 74 kts | 204° |
| 2026-04-13 19:35 | -0.71512 | 8.75304 | 21 ft | 60 kts | 204° |
| 2026-04-13 19:36 | -0.71772 | 8.75192 | 20 ft | 33 kts | 199° |
| 2026-04-13 19:36 | -0.71943 | 8.75173 | 20 ft | 13 kts | 122° |
| 2026-04-13 19:36 | -0.71966 | 8.75230 | 20 ft | 9 kts | 123° |
| 2026-04-13 19:36 | -0.72015 | 8.75269 | 20 ft | 2 kts | 155° |
| 2026-04-13 19:37 | -0.72038 | 8.75266 | 20 ft | 0 kts | 302° |
| 2026-04-13 19:37 | -0.72098 | 8.75231 | 20 ft | 13 kts | 192° |
| 2026-04-13 19:37 | -0.72129 | 8.75203 | 20 ft | 0 kts | 297° |